FACT

Cape Town International Airport

Airport
ICAO code
FACT
IATA Code
CPT
Summary
ICAO Region
AFI
ICAO Territory
Location

, Western Cape

Serving
Cape Town
Elevation
151 ft
Coordinates
33° 57' 53" S , 18° 36' 6" E
Metar
Observation
FACT 062100Z 22014KT 8000 SCT003 18/17 Q1011 TEMPO 4000 BR BKN003
Station
Cape Town, Cape Town International Airport
Date/Time
2023-02-06 21:00:00
Wind direction
220°
Wind speed
14 kts
Lowest cloud amount
scattered clouds
Temperature
18°C
Dew point
17°C
Humidity
93%
QNH
1011 hPa
Weather condition
n/a

Runways

Designator Length Width Surface Rops
16/34 1701 46 ASP Yes/Yes
1/19 3201 61 ASP Yes/Yes

Airport map

Aerial View

SKYbrary Partners:

Safety knowledge contributed by: